Impacts METAR Board
IDs:

KFPR - Ft Pierce/St Lucie I, FL, US

Updated at: 1100 UTC 28 Sep 2021
Potential Impact None Slight Moderate High
Time 27/23Z 28/00Z 28/01Z 28/02Z 28/03Z 28/04Z 28/05Z 28/06Z 28/07Z 28/08Z 28/09Z 28/10Z 28/11Z
Temp80 78 78 76 77 76 69 67 67 67 67 65 64
Dewpt62 63 64 64 63 62 62 64 64 64 64 63 62
Altim30.04 30.06 30.06 30.07 30.07 30.06 30.05 30.03 30.01 30.00 30.00 30.02 30.03
VIS10 10 10 10 10 10 10 10 10 10 10 10 10
CIG-- -- -- 55 -- -- -- -- -- 43 -- -- --
CoverCLRCLRFEWBKNSCTCLRCLRCLRCLRBKNSCTCLRCLR
FltCatVFRVFRVFRVFRVFRVFRVFRVFRVFRVFRVFRVFRVFR
WX--------------------------
WDir50506005000000000
WSpd4 3 4 0 3 0 0 0 0 0 0 0 0
WGst-- -- -- -- -- -- -- -- -- -- -- -- --
Raw hourly METARs
KFPR 272253Z 05004KT 10SM CLR 27/17 A3004 RMK AO2 SLP173 T02670167
KFPR 272353Z 05003KT 10SM CLR 26/17 A3006 RMK AO2 SLP177 T02560172 10300 20256 53007
KFPR 280053Z AUTO 06004KT 10SM FEW044 26/18 A3006 RMK AO2 SLP179 T02560178
KFPR 280153Z AUTO 00000KT 10SM SCT045 BKN055 24/18 A3007 RMK AO2 SLP183 T02440178
KFPR 280253Z AUTO 05003KT 10SM SCT043 SCT050 25/17 A3007 RMK AO2 SLP180 T02500172 50003
KFPR 280353Z AUTO 00000KT 10SM CLR 24/17 A3006 RMK AO2 SLP177 T02440167
KFPR 280453Z AUTO 00000KT 10SM CLR 21/17 A3005 RMK AO2 SLP173 T02060167 403000183
KFPR 280553Z AUTO 00000KT 10SM CLR 19/18 A3003 RMK AO2 SLP168 T01940178 10256 20194 58013
KFPR 280653Z AUTO 00000KT 10SM CLR 19/18 A3001 RMK AO2 SLP163 T01940178
KFPR 280753Z AUTO 00000KT 10SM BKN043 19/18 A3000 RMK AO2 SLP159 T01940178
KFPR 280853Z AUTO 00000KT 10SM SCT045 19/18 A3000 RMK AO2 SLP159 T01940178 55009
KFPR 280953Z AUTO 00000KT 10SM CLR 18/17 A3002 RMK AO2 SLP163 T01830172
KFPR 281053Z AUTO 00000KT 10SM CLR 18/17 A3003 RMK AO2 SLP167 T01780167



Page loaded:  11:07 UTC  |   04:07 AM Pacific  |   05:07 AM Mountain  |   06:07 AM Central  |   07:07 AM Eastern

 

ADVISORIES

FORECASTS

FORECASTS

OBSERVATIONS

USER TOOLS

ABOUT US